createdAt,value
2023-02-27T00:00:00.587Z,17.00
2023-02-27T00:00:33.077Z,16.13
2023-02-27T00:01:05.045Z,16.00
2023-02-27T00:01:36.867Z,16.70
2023-02-27T00:02:08.762Z,15.87
2023-02-27T00:02:45.486Z,15.87
2023-02-27T00:03:17.332Z,16.17
2023-02-27T00:03:49.309Z,17.30
2023-02-27T00:04:21.130Z,16.63
2023-02-27T00:04:54.565Z,17.27
2023-02-27T00:05:26.369Z,17.27
2023-02-27T00:05:58.380Z,17.27
2023-02-27T00:06:30.160Z,17.53
2023-02-27T00:07:01.964Z,18.43
2023-02-27T00:07:33.733Z,19.33
2023-02-27T00:08:05.506Z,19.03
2023-02-27T00:08:37.366Z,17.50
2023-02-27T00:09:09.199Z,18.93
2023-02-27T00:09:42.102Z,18.20
2023-02-27T00:10:15.196Z,17.70
2023-02-27T00:10:46.962Z,18.13
2023-02-27T00:11:18.878Z,17.53
2023-02-27T00:11:50.615Z,17.10
2023-02-27T00:12:22.397Z,18.07
2023-02-27T00:12:54.314Z,18.30
2023-02-27T00:13:26.072Z,18.03
2023-02-27T00:13:57.968Z,17.47
2023-02-27T00:14:30.045Z,16.87
2023-02-27T00:15:01.804Z,16.00
2023-02-27T00:15:33.993Z,15.27
2023-02-27T00:16:06.500Z,15.37
2023-02-27T00:16:38.240Z,15.20
2023-02-27T00:17:09.961Z,14.67
2023-02-27T00:17:42.653Z,15.53
2023-02-27T00:18:14.441Z,16.03
2023-02-27T00:18:46.222Z,14.60
2023-02-27T00:19:18.035Z,15.70
2023-02-27T00:19:49.771Z,15.60
2023-02-27T00:20:25.798Z,15.87
2023-02-27T00:20:57.616Z,15.97
2023-02-27T00:21:29.372Z,17.07
2023-02-27T00:22:01.104Z,16.47
2023-02-27T00:22:32.975Z,16.83
2023-02-27T00:23:09.528Z,15.73
2023-02-27T00:23:41.335Z,15.53
2023-02-27T00:24:13.942Z,16.43
2023-02-27T00:24:45.654Z,16.40
2023-02-27T00:25:17.529Z,15.67
2023-02-27T00:25:50.070Z,16.67
2023-02-27T00:26:21.916Z,16.50
2023-02-27T00:26:53.698Z,17.97
2023-02-27T00:27:25.490Z,17.17
2023-02-27T00:27:57.498Z,16.40
2023-02-27T00:28:29.268Z,16.60
2023-02-27T00:29:01.018Z,16.13
2023-02-27T00:29:32.753Z,15.43
2023-02-27T00:30:10.585Z,16.50
2023-02-27T00:30:42.488Z,16.37
2023-02-27T00:31:14.527Z,16.87
2023-02-27T00:31:46.384Z,16.13
2023-02-27T00:32:18.272Z,15.83
2023-02-27T00:32:50.064Z,16.87
2023-02-27T00:33:22.409Z,16.80
2023-02-27T00:33:54.225Z,16.83
2023-02-27T00:34:26.203Z,15.90
2023-02-27T00:34:57.989Z,16.23
2023-02-27T00:35:29.728Z,16.07
2023-02-27T00:36:03.105Z,17.30
2023-02-27T00:36:34.869Z,16.67
2023-02-27T00:37:06.680Z,16.50
2023-02-27T00:37:39.238Z,16.50
2023-02-27T00:38:11.012Z,14.83
2023-02-27T00:38:42.774Z,15.43
2023-02-27T00:39:15.910Z,16.30
2023-02-27T00:39:47.757Z,15.60
2023-02-27T00:40:19.861Z,16.07
2023-02-27T00:40:51.685Z,16.30
2023-02-27T00:41:23.484Z,16.70
2023-02-27T00:41:55.440Z,16.87
2023-02-27T00:42:28.703Z,17.03
2023-02-27T00:43:00.507Z,15.43
2023-02-27T00:43:32.240Z,16.43
2023-02-27T00:44:04.122Z,16.33
2023-02-27T00:44:35.918Z,18.07
2023-02-27T00:45:08.500Z,18.50
2023-02-27T00:45:40.283Z,18.17
2023-02-27T00:46:12.229Z,15.53
2023-02-27T00:46:44.119Z,14.90
2023-02-27T00:47:15.966Z,17.10
2023-02-27T00:47:48.248Z,17.63
2023-02-27T00:48:20.502Z,16.80
2023-02-27T00:48:52.331Z,17.63
2023-02-27T00:49:25.557Z,17.00
2023-02-27T00:49:57.332Z,16.33
2023-02-27T00:50:29.113Z,16.13
2023-02-27T00:51:00.952Z,16.37
2023-02-27T00:51:32.815Z,16.67
2023-02-27T00:52:04.762Z,18.10
2023-02-27T00:52:36.565Z,16.77
2023-02-27T00:53:08.775Z,17.03
2023-02-27T00:53:41.230Z,16.57
2023-02-27T00:54:13.033Z,16.60
2023-02-27T00:54:44.830Z,16.20
2023-02-27T00:55:16.617Z,16.30
2023-02-27T00:55:48.420Z,16.53
2023-02-27T00:56:20.226Z,15.83
2023-02-27T00:56:51.990Z,15.30
2023-02-27T00:57:23.753Z,15.33
2023-02-27T00:57:55.624Z,17.07
2023-02-27T00:58:27.492Z,16.33
2023-02-27T00:58:59.303Z,15.83
2023-02-27T00:59:31.113Z,15.47
2023-02-27T01:00:02.987Z,15.70
2023-02-27T01:00:34.799Z,15.73
2023-02-27T01:01:06.631Z,15.33
2023-02-27T01:01:38.449Z,15.30
2023-02-27T01:02:10.537Z,15.37
2023-02-27T01:02:42.350Z,16.00
2023-02-27T01:03:14.292Z,15.83
2023-02-27T01:03:46.060Z,15.00
2023-02-27T01:04:17.884Z,15.07
2023-02-27T01:04:49.690Z,16.20
2023-02-27T01:05:21.529Z,17.47
2023-02-27T01:05:53.297Z,16.77
2023-02-27T01:06:25.029Z,15.13
2023-02-27T01:06:56.768Z,14.70
2023-02-27T01:07:28.742Z,15.73
2023-02-27T01:08:00.588Z,16.27
2023-02-27T01:08:32.465Z,15.37
2023-02-27T01:09:04.383Z,15.13
2023-02-27T01:09:36.370Z,15.60
2023-02-27T01:10:10.639Z,15.43
2023-02-27T01:10:42.420Z,15.17
2023-02-27T01:11:14.323Z,14.60
2023-02-27T01:11:46.083Z,14.87
2023-02-27T01:12:17.966Z,15.43
2023-02-27T01:12:49.852Z,15.73
2023-02-27T01:13:22.340Z,15.77
2023-02-27T01:13:54.171Z,16.57
2023-02-27T01:14:26.734Z,16.93
2023-02-27T01:14:58.605Z,15.77
2023-02-27T01:15:30.408Z,15.57
2023-02-27T01:16:02.289Z,17.00
2023-02-27T01:16:34.170Z,16.67
2023-02-27T01:17:05.929Z,16.03
2023-02-27T01:17:37.665Z,16.07
2023-02-27T01:18:09.454Z,16.30
2023-02-27T01:18:41.868Z,15.63
2023-02-27T01:19:13.654Z,15.80
2023-02-27T01:19:45.509Z,17.27
2023-02-27T01:20:17.652Z,17.63
2023-02-27T01:20:53.975Z,17.20
2023-02-27T01:21:26.657Z,15.97
2023-02-27T01:21:58.714Z,17.20
2023-02-27T01:22:30.498Z,16.77
2023-02-27T01:23:02.590Z,15.93
2023-02-27T01:23:34.375Z,17.27
2023-02-27T01:24:06.372Z,16.63
2023-02-27T01:24:38.156Z,16.27
2023-02-27T01:25:10.527Z,16.00
2023-02-27T01:25:42.261Z,17.67
2023-02-27T01:26:14.047Z,17.67
2023-02-27T01:26:46.235Z,18.73
2023-02-27T01:27:18.104Z,17.10
2023-02-27T01:27:50.243Z,16.87
2023-02-27T01:28:22.131Z,16.80
2023-02-27T01:28:54.097Z,16.27
2023-02-27T01:29:25.979Z,17.43
2023-02-27T01:29:57.828Z,16.20
2023-02-27T01:30:29.736Z,17.23
2023-02-27T01:31:01.709Z,16.63
2023-02-27T01:31:34.185Z,16.93
2023-02-27T01:32:05.998Z,17.00
2023-02-27T01:32:38.116Z,16.80
2023-02-27T01:33:10.367Z,17.17
2023-02-27T01:33:42.174Z,16.47
2023-02-27T01:34:13.927Z,16.73
2023-02-27T01:34:45.835Z,16.43
2023-02-27T01:35:18.028Z,16.90
2023-02-27T01:35:49.888Z,17.97
2023-02-27T01:36:21.640Z,17.10
2023-02-27T01:36:53.404Z,16.53
2023-02-27T01:37:25.228Z,16.83
2023-02-27T01:37:57.050Z,16.57
2023-02-27T01:38:28.832Z,16.33
2023-02-27T01:39:00.606Z,17.77
2023-02-27T01:39:33.196Z,17.47
2023-02-27T01:40:07.191Z,17.13
2023-02-27T01:40:41.348Z,17.07
2023-02-27T01:41:13.353Z,18.03
2023-02-27T01:41:45.161Z,16.80
2023-02-27T01:42:24.018Z,16.57
2023-02-27T01:42:55.810Z,16.60
2023-02-27T01:43:28.232Z,17.00
2023-02-27T01:44:03.112Z,16.73
2023-02-27T01:45:06.566Z,17.13
2023-02-27T01:45:42.467Z,16.83
2023-02-27T01:46:14.306Z,17.77
2023-02-27T01:46:46.098Z,17.33
2023-02-27T01:47:18.306Z,18.07
2023-02-27T01:47:54.545Z,19.97
2023-02-27T01:48:35.482Z,19.17
2023-02-27T01:49:20.996Z,17.40
2023-02-27T01:49:52.767Z,17.07
2023-02-27T01:50:25.798Z,16.70
2023-02-27T01:50:57.756Z,16.30
2023-02-27T01:51:36.556Z,17.17
2023-02-27T01:52:12.269Z,17.07
2023-02-27T01:52:46.124Z,19.13
2023-02-27T01:53:20.288Z,20.43
2023-02-27T01:53:54.071Z,17.73
2023-02-27T01:54:27.135Z,16.47
2023-02-27T01:54:59.158Z,16.73
2023-02-27T01:55:37.945Z,17.87
2023-02-27T01:56:25.681Z,18.03
2023-02-27T01:56:57.641Z,18.10
2023-02-27T01:57:29.485Z,18.37
2023-02-27T01:58:01.444Z,18.43
2023-02-27T01:58:34.289Z,19.63
2023-02-27T01:59:09.711Z,17.83
2023-02-27T01:59:43.382Z,17.43
2023-02-27T02:00:15.939Z,17.13
2023-02-27T02:00:49.188Z,17.63
2023-02-27T02:01:23.374Z,18.37
2023-02-27T02:01:57.539Z,20.53
2023-02-27T02:02:36.663Z,18.00
2023-02-27T02:03:25.721Z,18.73
2023-02-27T02:04:08.268Z,19.17
2023-02-27T02:04:41.355Z,18.87
2023-02-27T02:05:15.209Z,18.80
2023-02-27T02:05:47.873Z,18.17
2023-02-27T02:06:21.154Z,18.53
2023-02-27T02:07:06.214Z,18.13
2023-02-27T02:07:40.409Z,18.40
2023-02-27T02:08:17.006Z,18.70
2023-02-27T02:08:53.377Z,18.97
2023-02-27T02:09:27.853Z,21.10
2023-02-27T02:10:01.560Z,22.57
2023-02-27T02:10:33.456Z,21.27
2023-02-27T02:11:06.569Z,19.33
2023-02-27T02:11:39.617Z,19.37
2023-02-27T02:12:14.925Z,18.63
2023-02-27T02:12:47.831Z,19.20
2023-02-27T02:13:22.760Z,18.17
2023-02-27T02:13:58.485Z,19.73
2023-02-27T02:14:30.496Z,19.73
2023-02-27T02:15:03.613Z,21.67
2023-02-27T02:15:44.772Z,21.70
2023-02-27T02:16:31.052Z,18.90
2023-02-27T02:17:24.253Z,18.90
2023-02-27T02:18:01.980Z,19.40
2023-02-27T02:18:47.604Z,21.13
2023-02-27T02:19:46.332Z,21.30
2023-02-27T02:20:20.832Z,21.67
2023-02-27T02:21:27.412Z,22.37
2023-02-27T02:22:49.971Z,20.73
2023-02-27T02:23:33.617Z,19.60
2023-02-27T02:24:27.604Z,20.57
2023-02-27T02:25:49.788Z,20.10
2023-02-27T02:26:36.586Z,20.17
2023-02-27T02:27:19.152Z,22.90
2023-02-27T02:28:12.993Z,19.83
2023-02-27T02:29:05.501Z,21.33
2023-02-27T02:29:47.164Z,21.50
2023-02-27T02:30:35.281Z,20.20
2023-02-27T02:31:37.858Z,20.57
2023-02-27T02:32:33.968Z,19.90
2023-02-27T02:33:24.106Z,20.40
2023-02-27T02:34:13.497Z,19.03
2023-02-27T02:35:09.861Z,20.07
2023-02-27T02:35:56.718Z,19.60
2023-02-27T02:37:01.862Z,22.20
2023-02-27T02:38:07.457Z,19.70
2023-02-27T02:39:03.333Z,20.20
2023-02-27T02:39:52.110Z,20.70
2023-02-27T02:40:44.058Z,19.03
2023-02-27T02:41:30.814Z,18.67
2023-02-27T02:42:19.054Z,21.80
2023-02-27T02:43:08.524Z,18.63
2023-02-27T02:44:07.935Z,17.67
2023-02-27T02:44:53.507Z,19.27
2023-02-27T02:45:59.022Z,19.93
2023-02-27T02:46:36.578Z,20.13
2023-02-27T02:47:24.123Z,18.00
2023-02-27T02:48:13.912Z,18.73
2023-02-27T02:49:06.103Z,20.20
2023-02-27T02:49:52.705Z,17.67
2023-02-27T02:50:39.631Z,18.13
2023-02-27T02:51:33.372Z,19.90
2023-02-27T02:52:23.832Z,20.60
2023-02-27T02:53:09.380Z,18.50
2023-02-27T02:53:49.739Z,20.97
2023-02-27T02:54:33.925Z,21.20
2023-02-27T02:55:16.870Z,20.77
2023-02-27T02:56:04.955Z,18.30
2023-02-27T02:57:10.475Z,18.73
2023-02-27T02:58:06.285Z,18.27
2023-02-27T02:59:02.933Z,18.07
2023-02-27T02:59:51.157Z,19.17
2023-02-27T03:00:31.194Z,19.40
2023-02-27T03:01:26.733Z,20.07
2023-02-27T03:02:04.960Z,17.80
2023-02-27T03:02:49.786Z,19.07
2023-02-27T03:03:29.034Z,18.27
2023-02-27T03:04:24.349Z,19.30
2023-02-27T03:05:08.645Z,19.37
2023-02-27T03:05:48.603Z,20.80
2023-02-27T03:06:35.181Z,20.83
2023-02-27T03:07:32.230Z,19.83
2023-02-27T03:08:23.065Z,19.40
2023-02-27T03:09:15.252Z,17.93
2023-02-27T03:09:54.619Z,17.80
2023-02-27T03:10:59.850Z,18.00
2023-02-27T03:11:37.199Z,20.47
2023-02-27T03:12:14.347Z,20.33
2023-02-27T03:12:58.245Z,19.63
2023-02-27T03:13:42.025Z,18.97
2023-02-27T03:14:42.808Z,18.77
2023-02-27T03:15:25.568Z,20.83
2023-02-27T03:16:32.807Z,19.23
2023-02-27T03:17:11.096Z,20.23
2023-02-27T03:17:46.824Z,19.30
2023-02-27T03:18:25.684Z,19.17
2023-02-27T03:19:06.356Z,19.00
2023-02-27T03:19:52.092Z,18.87
2023-02-27T03:20:36.111Z,19.80
2023-02-27T03:21:16.392Z,19.10
2023-02-27T03:21:48.091Z,18.07
2023-02-27T03:22:28.855Z,18.67
2023-02-27T03:23:09.972Z,19.67
2023-02-27T03:23:47.779Z,19.77
2023-02-27T03:24:51.547Z,19.47
2023-02-27T03:25:27.314Z,20.87
2023-02-27T03:26:00.231Z,20.37
2023-02-27T03:26:39.129Z,19.40
2023-02-27T03:27:12.502Z,21.23
2023-02-27T03:27:53.644Z,21.90
2023-02-27T03:28:31.600Z,20.67
2023-02-27T03:29:15.037Z,20.23
2023-02-27T03:30:01.238Z,19.27
2023-02-27T03:30:38.363Z,22.67
2023-02-27T03:31:20.568Z,21.43
2023-02-27T03:32:09.505Z,22.27
2023-02-27T03:32:52.921Z,22.20
2023-02-27T03:33:38.081Z,21.73
2023-02-27T03:34:30.192Z,22.53
2023-02-27T03:35:04.755Z,21.43
2023-02-27T03:35:53.319Z,22.93
2023-02-27T03:36:47.151Z,21.47
2023-02-27T03:37:52.987Z,22.20
2023-02-27T03:38:51.441Z,22.40
2023-02-27T03:39:46.802Z,20.87
2023-02-27T03:40:42.903Z,20.63
2023-02-27T03:41:31.289Z,21.93
2023-02-27T03:42:16.291Z,19.83
2023-02-27T03:43:01.090Z,21.00
2023-02-27T03:43:41.896Z,19.97
2023-02-27T03:44:25.376Z,21.27
2023-02-27T03:45:40.132Z,22.20
2023-02-27T03:46:17.036Z,23.27
2023-02-27T03:46:48.932Z,21.10
2023-02-27T03:47:21.290Z,20.37
2023-02-27T03:47:53.517Z,22.10
2023-02-27T03:48:26.088Z,23.77
2023-02-27T03:48:58.019Z,23.70
2023-02-27T03:49:29.901Z,21.60
2023-02-27T03:50:02.117Z,20.53
2023-02-27T03:50:36.106Z,20.90
2023-02-27T03:51:07.886Z,20.93
2023-02-27T03:51:39.856Z,20.57
2023-02-27T03:52:12.603Z,22.17
2023-02-27T03:52:45.905Z,23.73
2023-02-27T03:53:34.962Z,24.90
2023-02-27T03:54:17.076Z,22.83
2023-02-27T03:55:13.357Z,22.90
2023-02-27T03:55:47.752Z,23.27
2023-02-27T03:56:27.323Z,23.93
2023-02-27T03:57:08.123Z,23.03
2023-02-27T03:57:41.186Z,24.87
2023-02-27T03:58:13.302Z,24.40
2023-02-27T03:58:45.845Z,24.03
2023-02-27T03:59:17.739Z,24.13
2023-02-27T03:59:50.008Z,24.43
2023-02-27T04:00:24.884Z,26.07
2023-02-27T04:00:57.154Z,26.93
2023-02-27T04:01:29.980Z,27.33
2023-02-27T04:02:03.585Z,24.83
2023-02-27T04:02:36.835Z,25.83
2023-02-27T04:03:09.354Z,25.10
2023-02-27T04:03:52.639Z,25.30
2023-02-27T04:04:27.620Z,25.20
2023-02-27T04:04:59.402Z,25.50
2023-02-27T04:05:31.450Z,27.83
2023-02-27T04:06:23.320Z,27.87
2023-02-27T04:07:22.698Z,26.10
2023-02-27T04:08:12.349Z,21.63
2023-02-27T04:09:27.753Z,22.27
2023-02-27T04:10:05.301Z,21.20
2023-02-27T04:10:45.337Z,22.37
2023-02-27T04:11:31.663Z,20.97
2023-02-27T04:12:12.215Z,23.47
2023-02-27T04:13:01.640Z,24.40
2023-02-27T04:13:52.043Z,27.97
2023-02-27T04:14:49.066Z,31.57
2023-02-27T04:15:33.021Z,35.23
2023-02-27T04:16:07.622Z,34.60
2023-02-27T04:16:59.995Z,36.70
2023-02-27T04:17:54.191Z,38.67
2023-02-27T04:19:00.493Z,30.93
2023-02-27T04:19:40.135Z,31.77
2023-02-27T04:20:23.976Z,36.47
2023-02-27T04:21:15.190Z,34.30
2023-02-27T04:22:31.103Z,29.20
2023-02-27T04:23:14.792Z,23.40
2023-02-27T04:24:10.907Z,22.63
2023-02-27T04:24:56.307Z,24.67
2023-02-27T04:25:43.554Z,27.63
2023-02-27T04:26:38.166Z,27.30
2023-02-27T04:27:18.763Z,23.57
2023-02-27T04:28:01.304Z,22.53
2023-02-27T04:29:05.561Z,21.23
2023-02-27T04:29:37.307Z,28.37
2023-02-27T04:30:20.732Z,24.90
2023-02-27T04:31:02.803Z,24.83
2023-02-27T04:32:04.651Z,25.93
2023-02-27T04:32:57.254Z,22.23
2023-02-27T04:33:34.321Z,24.93
2023-02-27T04:34:21.366Z,24.63
2023-02-27T04:35:00.622Z,25.27
2023-02-27T04:35:53.274Z,20.97
2023-02-27T04:36:46.393Z,23.00
2023-02-27T04:37:26.195Z,20.70
2023-02-27T04:38:18.332Z,22.37
2023-02-27T04:39:18.152Z,22.33
2023-02-27T04:39:55.643Z,23.13
2023-02-27T04:40:41.713Z,23.13
2023-02-27T04:41:23.483Z,22.37
2023-02-27T04:42:06.126Z,20.83
2023-02-27T04:42:49.814Z,23.20
2023-02-27T04:43:25.574Z,24.93
2023-02-27T04:43:59.334Z,22.17
2023-02-27T04:44:36.227Z,20.90
2023-02-27T04:45:15.314Z,20.43
2023-02-27T04:45:50.979Z,21.37
2023-02-27T04:46:28.186Z,23.60
2023-02-27T04:47:03.303Z,24.20
2023-02-27T04:47:48.439Z,24.53
2023-02-27T04:48:25.487Z,20.07
2023-02-27T04:49:28.452Z,19.57
2023-02-27T04:50:10.014Z,19.77
2023-02-27T04:50:46.757Z,18.83
2023-02-27T04:51:25.028Z,21.13
2023-02-27T04:52:15.233Z,19.97
2023-02-27T04:52:54.446Z,20.37
2023-02-27T04:53:31.028Z,20.17
2023-02-27T04:54:08.089Z,21.63
2023-02-27T04:54:42.887Z,20.67
2023-02-27T04:55:22.422Z,21.97
2023-02-27T04:56:02.563Z,20.93
2023-02-27T04:56:48.212Z,20.77
2023-02-27T04:57:30.075Z,19.97
2023-02-27T04:58:12.787Z,19.83
2023-02-27T04:58:50.705Z,21.00
2023-02-27T04:59:27.735Z,23.17
2023-02-27T05:00:06.248Z,21.80
2023-02-27T05:00:44.332Z,20.40
2023-02-27T05:01:26.493Z,21.97
2023-02-27T05:02:03.406Z,21.87
2023-02-27T05:02:48.070Z,22.47
2023-02-27T05:03:26.135Z,19.47
2023-02-27T05:04:00.459Z,21.63
2023-02-27T05:04:37.146Z,20.17
2023-02-27T05:05:19.377Z,18.57
2023-02-27T05:05:57.718Z,20.10
2023-02-27T05:06:35.408Z,19.50
2023-02-27T05:07:11.894Z,19.60
2023-02-27T05:07:54.416Z,22.93
2023-02-27T05:08:44.372Z,23.20
2023-02-27T05:09:45.673Z,27.97
2023-02-27T05:10:24.817Z,28.80
2023-02-27T05:11:08.187Z,28.00
2023-02-27T05:11:56.736Z,24.93
2023-02-27T05:12:48.199Z,24.17
2023-02-27T05:13:30.092Z,23.93
2023-02-27T05:14:12.375Z,22.57
2023-02-27T05:15:02.663Z,21.63
2023-02-27T05:15:43.571Z,20.40
2023-02-27T05:16:44.213Z,20.57
2023-02-27T05:17:25.682Z,20.77
2023-02-27T05:18:03.895Z,19.93
2023-02-27T05:18:36.304Z,21.07
2023-02-27T05:19:10.151Z,20.30
2023-02-27T05:19:43.944Z,20.40
2023-02-27T05:20:17.953Z,20.03
2023-02-27T05:21:01.717Z,19.63
2023-02-27T05:21:36.684Z,17.07
2023-02-27T05:22:42.386Z,17.87
2023-02-27T05:23:51.904Z,18.80
2023-02-27T05:24:49.760Z,16.67
2023-02-27T05:25:37.492Z,16.83
2023-02-27T05:26:57.802Z,18.13
2023-02-27T05:27:59.823Z,18.97
2023-02-27T05:28:47.476Z,18.53
2023-02-27T05:29:28.451Z,18.40
2023-02-27T05:30:09.404Z,18.07
2023-02-27T05:30:53.041Z,18.03
2023-02-27T05:31:24.911Z,18.20
2023-02-27T05:32:11.707Z,18.10
2023-02-27T05:32:56.680Z,15.90
2023-02-27T05:33:41.718Z,18.20
2023-02-27T05:34:52.079Z,18.53
2023-02-27T05:35:31.902Z,18.77
2023-02-27T05:36:15.631Z,16.67
2023-02-27T05:37:01.042Z,19.53
2023-02-27T05:37:55.875Z,18.60
2023-02-27T05:38:34.728Z,18.87
2023-02-27T05:39:10.300Z,18.53
2023-02-27T05:39:46.160Z,19.00
2023-02-27T05:40:29.999Z,18.47
2023-02-27T05:41:10.198Z,16.87
2023-02-27T05:41:53.086Z,17.43
2023-02-27T05:42:41.133Z,18.33
2023-02-27T05:43:29.262Z,18.97
2023-02-27T05:44:12.576Z,19.07
2023-02-27T05:44:51.897Z,19.47
2023-02-27T05:45:29.570Z,18.90
2023-02-27T05:46:11.824Z,19.60
2023-02-27T05:46:59.974Z,18.47
2023-02-27T05:47:37.066Z,16.83
2023-02-27T05:48:15.134Z,18.27
2023-02-27T05:49:11.839Z,18.87
2023-02-27T05:49:46.693Z,20.33
2023-02-27T05:50:25.098Z,19.93
2023-02-27T05:50:59.660Z,19.60
2023-02-27T05:51:35.912Z,19.37
2023-02-27T05:52:12.481Z,20.53
2023-02-27T05:52:47.898Z,20.53
2023-02-27T05:53:22.510Z,21.00
2023-02-27T05:54:01.803Z,19.17
2023-02-27T05:54:44.635Z,19.90
2023-02-27T05:55:42.164Z,19.40
2023-02-27T05:56:18.991Z,19.13
2023-02-27T05:56:57.024Z,18.37
2023-02-27T05:58:06.667Z,19.53
2023-02-27T05:58:51.195Z,18.63
2023-02-27T05:59:32.752Z,19.73
2023-02-27T06:00:10.788Z,18.77
2023-02-27T06:01:00.007Z,19.10
2023-02-27T06:01:33.133Z,20.30
2023-02-27T06:02:06.260Z,20.37
2023-02-27T06:02:39.386Z,20.07
2023-02-27T06:03:12.411Z,21.57
2023-02-27T06:03:44.345Z,24.43
2023-02-27T06:04:16.394Z,28.53
2023-02-27T06:04:48.325Z,26.57
2023-02-27T06:05:20.256Z,24.83
2023-02-27T06:05:55.359Z,23.10
2023-02-27T06:06:27.460Z,22.90
2023-02-27T06:06:59.484Z,22.30
2023-02-27T06:07:32.695Z,24.43
2023-02-27T06:08:04.525Z,30.90
2023-02-27T06:08:36.391Z,32.33
2023-02-27T06:09:09.452Z,30.70
2023-02-27T06:09:44.265Z,28.63
2023-02-27T06:10:19.600Z,23.77
2023-02-27T06:10:51.627Z,25.13
2023-02-27T06:11:23.361Z,26.10
2023-02-27T06:11:55.288Z,22.67
2023-02-27T06:12:27.069Z,20.90
2023-02-27T06:12:58.875Z,20.73
2023-02-27T06:13:30.717Z,20.03
2023-02-27T06:14:03.419Z,19.97
2023-02-27T06:14:35.232Z,18.60
2023-02-27T06:15:07.731Z,18.03
2023-02-27T06:15:39.509Z,19.13
2023-02-27T06:16:13.779Z,19.40
2023-02-27T06:16:46.140Z,18.70
2023-02-27T06:17:18.303Z,17.50
2023-02-27T06:17:50.351Z,17.90
2023-02-27T06:18:23.075Z,19.37
2023-02-27T06:18:55.582Z,19.47
2023-02-27T06:19:27.412Z,19.20
2023-02-27T06:19:59.375Z,17.83
2023-02-27T06:20:31.306Z,18.10
2023-02-27T06:21:04.087Z,16.63
2023-02-27T06:21:35.884Z,18.13
2023-02-27T06:22:07.829Z,17.20
2023-02-27T06:22:40.294Z,18.60
2023-02-27T06:23:12.642Z,17.57
2023-02-27T06:23:44.449Z,17.57
2023-02-27T06:24:16.500Z,19.00
2023-02-27T06:24:48.608Z,19.23
2023-02-27T06:25:22.224Z,18.20
2023-02-27T06:25:54.201Z,17.50
2023-02-27T06:26:26.680Z,18.00
2023-02-27T06:26:58.514Z,19.50
2023-02-27T06:27:30.411Z,20.00
2023-02-27T06:28:02.818Z,19.53
2023-02-27T06:28:34.597Z,18.60
2023-02-27T06:29:06.350Z,18.37
2023-02-27T06:29:38.162Z,18.33
2023-02-27T06:30:10.523Z,18.03
2023-02-27T06:30:43.918Z,18.67
2023-02-27T06:31:16.695Z,18.80
2023-02-27T06:31:48.532Z,18.50
2023-02-27T06:32:21.969Z,17.30
2023-02-27T06:32:54.065Z,18.30
2023-02-27T06:33:26.485Z,19.43
2023-02-27T06:33:58.263Z,18.90
2023-02-27T06:34:30.030Z,19.67
2023-02-27T06:35:02.121Z,19.63
2023-02-27T06:35:34.058Z,18.03
2023-02-27T06:36:06.106Z,17.50
2023-02-27T06:36:37.947Z,19.17
2023-02-27T06:37:09.715Z,18.53
2023-02-27T06:37:41.478Z,19.77
2023-02-27T06:38:13.253Z,19.97
2023-02-27T06:38:44.962Z,19.40
2023-02-27T06:39:16.917Z,20.33
2023-02-27T06:39:48.722Z,19.60
2023-02-27T06:40:20.536Z,19.90
2023-02-27T06:40:52.396Z,20.17
2023-02-27T06:41:24.152Z,19.90
2023-02-27T06:41:55.969Z,19.63
2023-02-27T06:42:28.059Z,18.93
2023-02-27T06:42:59.845Z,19.10
2023-02-27T06:43:34.806Z,19.40
2023-02-27T06:44:06.634Z,21.33
2023-02-27T06:44:38.356Z,21.17
2023-02-27T06:45:12.152Z,19.60
2023-02-27T06:45:43.951Z,28.83
2023-02-27T06:46:15.855Z,26.53
2023-02-27T06:46:47.697Z,23.60
2023-02-27T06:47:19.453Z,23.67
2023-02-27T06:47:51.241Z,35.63
2023-02-27T06:48:23.194Z,35.70
2023-02-27T06:48:54.960Z,24.50
2023-02-27T06:49:26.749Z,20.67
2023-02-27T06:49:58.882Z,20.27
2023-02-27T06:50:30.727Z,19.83
2023-02-27T06:51:03.672Z,17.93
2023-02-27T06:51:35.524Z,19.10
2023-02-27T06:52:07.721Z,19.03
2023-02-27T06:52:40.239Z,18.47
2023-02-27T06:53:12.030Z,18.87
2023-02-27T06:53:43.772Z,19.13
2023-02-27T06:54:15.655Z,20.27
2023-02-27T06:54:47.456Z,21.03
2023-02-27T06:55:21.020Z,21.57
2023-02-27T06:55:52.942Z,20.73
2023-02-27T06:56:25.038Z,20.07
2023-02-27T06:56:56.945Z,19.13
2023-02-27T06:57:28.751Z,18.77
2023-02-27T06:58:00.524Z,20.43
2023-02-27T06:58:32.335Z,19.77
2023-02-27T06:59:04.080Z,18.97
2023-02-27T06:59:35.812Z,17.73
2023-02-27T07:00:08.447Z,19.10
2023-02-27T07:00:40.226Z,19.73
2023-02-27T07:01:13.525Z,19.13
2023-02-27T07:01:45.436Z,19.30
2023-02-27T07:02:18.492Z,19.40
2023-02-27T07:02:50.489Z,17.80
2023-02-27T07:03:22.335Z,17.17
2023-02-27T07:03:54.130Z,19.73
2023-02-27T07:04:26.040Z,20.33
2023-02-27T07:04:57.996Z,21.50
2023-02-27T07:05:30.020Z,21.67
2023-02-27T07:06:02.595Z,22.37
2023-02-27T07:07:33.976Z,22.93
2023-02-27T07:07:36.368Z,24.17
2023-02-27T07:08:10.187Z,24.23
2023-02-27T07:09:00.867Z,23.87
2023-02-27T07:09:34.152Z,24.17
2023-02-27T07:10:08.887Z,20.97
2023-02-27T07:10:44.058Z,18.73
2023-02-27T07:11:15.918Z,18.43
2023-02-27T07:11:47.727Z,18.47
2023-02-27T07:12:19.512Z,19.10
2023-02-27T07:12:51.327Z,22.57
2023-02-27T07:13:23.474Z,19.73
2023-02-27T07:13:55.313Z,18.67
2023-02-27T07:14:27.103Z,18.83
2023-02-27T07:14:59.073Z,18.10
2023-02-27T07:15:30.784Z,18.20
2023-02-27T07:16:02.626Z,19.63
2023-02-27T07:16:34.672Z,21.27
2023-02-27T07:17:06.446Z,21.37
2023-02-27T07:17:38.353Z,19.67
2023-02-27T07:18:10.426Z,19.23
2023-02-27T07:18:42.247Z,19.37
2023-02-27T07:19:14.329Z,20.03
2023-02-27T07:19:46.051Z,18.40
2023-02-27T07:20:17.974Z,19.50
2023-02-27T07:20:51.460Z,18.97
2023-02-27T07:21:23.246Z,18.63
2023-02-27T07:21:55.010Z,19.30
2023-02-27T07:22:27.262Z,20.83
2023-02-27T07:22:59.094Z,21.73
2023-02-27T07:23:31.129Z,21.30
2023-02-27T07:24:04.914Z,25.00
2023-02-27T07:24:37.116Z,25.10
2023-02-27T07:25:09.694Z,23.80
2023-02-27T07:25:41.472Z,25.03
2023-02-27T07:26:14.355Z,30.00
2023-02-27T07:26:46.142Z,26.23
2023-02-27T07:27:17.931Z,24.33
2023-02-27T07:27:50.939Z,22.93
2023-02-27T07:28:22.850Z,21.67
2023-02-27T07:28:54.964Z,21.50
2023-02-27T07:29:27.219Z,24.23
2023-02-27T07:29:59.022Z,26.97
2023-02-27T07:30:30.979Z,25.23
2023-02-27T07:31:02.856Z,23.10
2023-02-27T07:31:34.669Z,22.90
2023-02-27T07:32:06.633Z,21.33
2023-02-27T07:32:38.544Z,20.87
2023-02-27T07:33:10.351Z,23.40
2023-02-27T07:33:42.254Z,23.20
2023-02-27T07:34:15.682Z,23.27
2023-02-27T07:34:47.542Z,35.80
2023-02-27T07:35:19.601Z,60.80
2023-02-27T07:35:52.077Z,31.53
2023-02-27T07:36:24.616Z,21.27
2023-02-27T07:36:56.537Z,20.57
2023-02-27T07:37:29.335Z,21.33
2023-02-27T07:38:01.098Z,23.67
2023-02-27T07:38:32.882Z,23.10
2023-02-27T07:39:05.981Z,50.30
2023-02-27T07:39:37.944Z,42.63
2023-02-27T07:40:10.626Z,26.93
2023-02-27T07:40:42.487Z,27.30
2023-02-27T07:41:29.567Z,24.97
2023-02-27T07:42:02.637Z,22.47
2023-02-27T07:42:35.438Z,23.93
2023-02-27T07:43:07.143Z,32.60
2023-02-27T07:43:38.948Z,47.07
2023-02-27T07:44:11.338Z,36.43
2023-02-27T07:44:43.080Z,25.80
2023-02-27T07:45:15.340Z,23.37
2023-02-27T07:45:47.216Z,23.73
2023-02-27T07:46:19.252Z,22.93
2023-02-27T07:46:51.080Z,23.43
2023-02-27T07:47:22.884Z,29.37
2023-02-27T07:47:54.880Z,28.87
2023-02-27T07:48:26.759Z,58.80
2023-02-27T07:48:58.530Z,31.97
2023-02-27T07:49:30.272Z,28.83
2023-02-27T07:50:02.159Z,26.87
2023-02-27T07:50:34.458Z,26.17
2023-02-27T07:51:07.088Z,28.03
2023-02-27T07:51:39.268Z,31.57
2023-02-27T07:52:11.415Z,29.17
2023-02-27T07:52:44.439Z,22.10
2023-02-27T07:53:16.295Z,20.47
2023-02-27T07:53:48.146Z,21.63
2023-02-27T07:54:20.086Z,22.77
2023-02-27T07:54:51.879Z,22.97
2023-02-27T07:55:23.642Z,25.87
2023-02-27T07:55:55.465Z,26.13
2023-02-27T07:56:27.792Z,25.60
2023-02-27T07:56:59.928Z,26.90
2023-02-27T07:57:31.857Z,26.57
2023-02-27T07:58:03.587Z,25.67
2023-02-27T07:58:35.383Z,24.57
2023-02-27T07:59:07.242Z,25.27
2023-02-27T07:59:39.127Z,24.30
2023-02-27T08:00:11.990Z,24.83
2023-02-27T08:00:44.236Z,25.30
2023-02-27T08:01:16.058Z,28.70
2023-02-27T08:01:47.828Z,29.57
2023-02-27T08:02:19.751Z,28.87
2023-02-27T08:02:51.576Z,27.53